createdAt,value
2023-01-07T00:01:43.295Z,6.13
2023-01-07T00:04:15.857Z,6.12
2023-01-07T00:06:45.030Z,6.10
2023-01-07T00:09:14.926Z,6.08
2023-01-07T00:11:43.045Z,6.08
2023-01-07T00:14:13.698Z,6.07
2023-01-07T00:16:42.272Z,6.04
2023-01-07T00:19:15.309Z,6.02
2023-01-07T00:21:43.238Z,6.00
2023-01-07T00:24:11.857Z,5.98
2023-01-07T00:26:41.882Z,5.95
2023-01-07T00:29:10.054Z,5.93
2023-01-07T00:31:39.835Z,5.91
2023-01-07T00:34:08.701Z,5.86
2023-01-07T00:36:45.610Z,5.85
2023-01-07T00:39:20.663Z,5.83
2023-01-07T00:41:49.945Z,5.82
2023-01-07T00:44:17.776Z,5.79
2023-01-07T00:46:45.715Z,5.75
2023-01-07T00:49:13.807Z,5.73
2023-01-07T00:51:41.726Z,5.68
2023-01-07T00:54:09.320Z,5.64
2023-01-07T00:56:38.063Z,5.61
2023-01-07T00:59:05.912Z,5.56
2023-01-07T01:01:33.714Z,5.51
2023-01-07T01:04:01.560Z,5.45
2023-01-07T01:06:29.217Z,5.40
2023-01-07T01:08:56.862Z,5.36
2023-01-07T01:11:24.786Z,5.32
2023-01-07T01:13:52.457Z,5.27
2023-01-07T01:16:20.303Z,5.21
2023-01-07T01:18:48.416Z,5.17
2023-01-07T01:21:16.382Z,5.13
2023-01-07T01:23:44.288Z,5.10
2023-01-07T01:26:17.004Z,5.09
2023-01-07T01:28:45.228Z,5.13
2023-01-07T01:31:13.442Z,5.13
2023-01-07T01:33:41.353Z,5.15
2023-01-07T01:36:11.384Z,5.20
2023-01-07T01:38:40.488Z,5.27
2023-01-07T01:41:09.043Z,5.32
2023-01-07T01:43:39.730Z,5.37
2023-01-07T01:46:22.358Z,5.42
2023-01-07T01:48:54.807Z,5.47
2023-01-07T01:51:28.031Z,5.49
2023-01-07T01:53:56.628Z,5.53
2023-01-07T01:56:30.407Z,5.56
2023-01-07T01:59:04.989Z,5.58
2023-01-07T02:01:36.285Z,5.59
2023-01-07T02:04:17.505Z,5.59
2023-01-07T02:06:56.502Z,5.56
2023-01-07T02:09:24.369Z,5.52
2023-01-07T02:12:26.660Z,5.45
2023-01-07T02:15:05.220Z,5.31
2023-01-07T02:17:41.819Z,5.19
2023-01-07T02:20:33.317Z,5.07
2023-01-07T02:23:41.053Z,4.93
2023-01-07T02:26:08.625Z,4.77
2023-01-07T02:29:04.161Z,4.63
2023-01-07T02:32:05.808Z,4.54
2023-01-07T02:35:02.017Z,4.47
2023-01-07T02:37:51.673Z,4.49
2023-01-07T02:40:26.628Z,4.54
2023-01-07T02:42:57.791Z,4.61
2023-01-07T02:45:32.476Z,4.68
2023-01-07T02:48:23.000Z,4.73
2023-01-07T02:50:51.070Z,4.78
2023-01-07T02:53:20.874Z,4.81
2023-01-07T02:56:07.564Z,4.83
2023-01-07T02:58:41.080Z,4.81
2023-01-07T03:01:27.133Z,4.78
2023-01-07T03:04:06.265Z,4.77
2023-01-07T03:06:57.246Z,4.76
2023-01-07T03:09:49.253Z,4.78
2023-01-07T03:12:30.387Z,4.82
2023-01-07T03:15:07.514Z,4.85
2023-01-07T03:17:44.582Z,4.89
2023-01-07T03:20:15.475Z,4.92
2023-01-07T03:22:46.707Z,4.95
2023-01-07T03:25:16.397Z,4.97
2023-01-07T03:27:48.611Z,4.99
2023-01-07T03:30:18.778Z,5.02
2023-01-07T03:32:56.644Z,5.05
2023-01-07T03:35:25.331Z,5.05
2023-01-07T03:37:53.879Z,5.04
2023-01-07T03:40:21.976Z,4.97
2023-01-07T03:42:50.112Z,4.88
2023-01-07T03:45:21.070Z,4.75
2023-01-07T03:47:51.675Z,4.64
2023-01-07T03:50:19.826Z,4.50
2023-01-07T03:52:48.819Z,4.34
2023-01-07T03:55:17.391Z,4.21
2023-01-07T03:57:45.269Z,4.08
2023-01-07T04:00:14.643Z,3.97
2023-01-07T04:02:43.104Z,3.86
2023-01-07T04:05:11.457Z,3.80
2023-01-07T04:07:39.233Z,3.82
2023-01-07T04:10:08.841Z,3.82
2023-01-07T04:12:37.741Z,3.84
2023-01-07T04:15:06.766Z,3.86
2023-01-07T04:17:34.683Z,3.88
2023-01-07T04:20:02.526Z,3.87
2023-01-07T04:22:30.443Z,3.84
2023-01-07T04:24:58.347Z,3.78
2023-01-07T04:27:26.140Z,3.70
2023-01-07T04:29:53.832Z,3.60
2023-01-07T04:32:21.715Z,3.51
2023-01-07T04:34:49.763Z,3.52
2023-01-07T04:37:17.755Z,3.57
2023-01-07T04:39:45.568Z,3.62
2023-01-07T04:42:13.301Z,3.67
2023-01-07T04:44:41.006Z,3.71
2023-01-07T04:47:08.640Z,3.73
2023-01-07T04:49:36.354Z,3.75
2023-01-07T04:52:04.936Z,3.77
2023-01-07T04:54:33.620Z,3.77
2023-01-07T04:57:01.546Z,3.77
2023-01-07T04:59:29.586Z,3.75
2023-01-07T05:01:57.408Z,3.73
2023-01-07T05:04:25.527Z,3.68
2023-01-07T05:06:53.420Z,3.62
2023-01-07T05:09:21.583Z,3.56
2023-01-07T05:11:49.499Z,3.49
2023-01-07T05:14:17.243Z,3.42
2023-01-07T05:16:45.321Z,3.30
2023-01-07T05:19:13.452Z,3.19
2023-01-07T05:21:41.247Z,3.10
2023-01-07T05:24:09.101Z,3.01
2023-01-07T05:26:36.911Z,2.92
2023-01-07T05:29:04.751Z,2.86
2023-01-07T05:31:32.704Z,2.84
2023-01-07T05:34:00.804Z,2.85
2023-01-07T05:36:28.908Z,2.87
2023-01-07T05:38:57.016Z,2.89
2023-01-07T05:41:24.824Z,2.91
2023-01-07T05:43:53.299Z,2.93
2023-01-07T05:46:21.683Z,2.94
2023-01-07T05:48:49.670Z,2.93
2023-01-07T05:51:17.664Z,2.90
2023-01-07T05:53:45.900Z,2.86
2023-01-07T05:56:13.669Z,2.82
2023-01-07T05:58:41.669Z,2.78
2023-01-07T06:01:09.644Z,2.75
2023-01-07T06:03:37.561Z,2.74
2023-01-07T06:06:05.926Z,2.75
2023-01-07T06:08:38.106Z,2.77
2023-01-07T06:11:07.260Z,2.79
2023-01-07T06:13:35.508Z,2.82
2023-01-07T06:16:06.471Z,2.85
2023-01-07T06:18:35.085Z,2.89
2023-01-07T06:21:03.411Z,2.93
2023-01-07T06:23:31.368Z,2.94
2023-01-07T06:25:59.259Z,2.96
2023-01-07T06:28:26.946Z,2.97
2023-01-07T06:30:55.316Z,2.99
2023-01-07T06:33:23.087Z,3.01
2023-01-07T06:35:50.843Z,3.01
2023-01-07T06:38:19.014Z,3.02
2023-01-07T06:40:46.588Z,3.03
2023-01-07T06:43:14.284Z,3.04
2023-01-07T06:45:41.897Z,3.04
2023-01-07T06:48:09.913Z,3.03
2023-01-07T06:50:38.018Z,3.02
2023-01-07T06:53:06.009Z,3.00
2023-01-07T06:55:33.791Z,2.96
2023-01-07T06:58:02.091Z,2.93
2023-01-07T07:00:30.286Z,2.88
2023-01-07T07:02:58.016Z,2.83
2023-01-07T07:05:26.527Z,2.81
2023-01-07T07:07:54.288Z,2.80
2023-01-07T07:10:21.948Z,2.79
2023-01-07T07:12:49.710Z,2.78
2023-01-07T07:15:17.779Z,2.77
2023-01-07T07:17:45.776Z,2.79
2023-01-07T07:20:13.840Z,2.90
2023-01-07T07:22:49.012Z,3.06
2023-01-07T07:25:17.010Z,3.21
2023-01-07T07:27:46.548Z,3.35
2023-01-07T07:30:15.536Z,3.49
2023-01-07T07:32:43.700Z,3.62
2023-01-07T07:35:12.373Z,3.75
2023-01-07T07:37:40.656Z,3.86
2023-01-07T07:40:09.733Z,3.96
2023-01-07T07:43:09.629Z,4.04
2023-01-07T07:45:26.651Z,4.13
2023-01-07T07:47:54.400Z,4.18
2023-01-07T07:50:22.489Z,4.24
2023-01-07T07:52:50.587Z,4.28
2023-01-07T07:55:20.385Z,4.33
2023-01-07T07:57:55.062Z,4.37
2023-01-07T08:00:23.295Z,4.40
2023-01-07T08:02:51.339Z,4.42
2023-01-07T08:05:19.567Z,4.43
2023-01-07T08:07:47.563Z,4.45
2023-01-07T08:10:15.304Z,4.46
2023-01-07T08:12:43.469Z,4.47
2023-01-07T08:15:12.006Z,4.48
2023-01-07T08:17:39.708Z,4.48
2023-01-07T08:20:08.855Z,4.49
2023-01-07T08:22:36.691Z,4.45
2023-01-07T08:25:05.250Z,4.43
2023-01-07T08:27:33.041Z,4.43
2023-01-07T08:30:00.992Z,4.41
2023-01-07T08:32:28.559Z,4.42
2023-01-07T08:34:56.631Z,4.43
2023-01-07T08:37:24.339Z,4.44
2023-01-07T08:39:52.377Z,4.42
2023-01-07T08:42:20.327Z,4.39
2023-01-07T08:44:48.157Z,4.39
2023-01-07T08:47:15.807Z,4.40
2023-01-07T08:49:43.526Z,4.44
2023-01-07T08:52:11.295Z,4.46
2023-01-07T08:54:39.177Z,4.45
2023-01-07T08:57:06.815Z,4.50
2023-01-07T08:59:34.742Z,4.54
2023-01-07T09:02:02.924Z,4.57
2023-01-07T09:04:30.713Z,4.63
2023-01-07T09:06:58.282Z,4.68
2023-01-07T09:09:25.859Z,4.71
2023-01-07T09:11:53.648Z,4.77
2023-01-07T09:14:21.388Z,4.89
2023-01-07T09:16:49.498Z,4.98
2023-01-07T09:19:17.484Z,5.08
2023-01-07T09:21:45.433Z,5.17
2023-01-07T09:24:13.500Z,5.25
2023-01-07T09:26:41.292Z,5.32
2023-01-07T09:29:09.178Z,5.43
2023-01-07T09:31:37.161Z,5.53
2023-01-07T09:34:04.783Z,5.63
2023-01-07T09:36:32.803Z,5.74
2023-01-07T09:39:00.831Z,5.86
2023-01-07T09:41:32.114Z,6.00
2023-01-07T09:44:12.462Z,6.12
2023-01-07T09:46:40.595Z,6.24
2023-01-07T09:49:15.641Z,6.31
2023-01-07T09:51:51.015Z,6.39
2023-01-07T09:54:30.041Z,6.48
2023-01-07T09:56:57.784Z,6.54
2023-01-07T09:59:25.782Z,6.58
2023-01-07T10:01:56.363Z,6.61
2023-01-07T10:04:48.974Z,6.64
2023-01-07T10:07:39.181Z,6.69
2023-01-07T10:10:41.980Z,6.70
2023-01-07T10:13:52.862Z,6.74
2023-01-07T10:16:25.645Z,6.78
2023-01-07T10:18:59.604Z,6.77
2023-01-07T10:21:36.277Z,6.78
2023-01-07T10:24:38.280Z,6.78
2023-01-07T10:27:15.893Z,6.81
2023-01-07T10:29:55.007Z,6.82
2023-01-07T10:32:28.463Z,6.85
2023-01-07T10:34:59.051Z,6.88
2023-01-07T10:37:39.491Z,6.92
2023-01-07T10:40:22.029Z,6.95
2023-01-07T10:42:58.937Z,6.97
2023-01-07T10:45:36.260Z,6.98
2023-01-07T10:48:36.795Z,7.02
2023-01-07T10:51:17.812Z,7.06
2023-01-07T10:54:05.906Z,7.13
2023-01-07T10:56:39.225Z,7.21
2023-01-07T10:59:15.775Z,7.28
2023-01-07T11:01:51.792Z,7.37
2023-01-07T11:04:20.103Z,7.44
2023-01-07T11:06:57.057Z,7.50
2023-01-07T11:09:30.509Z,7.54
2023-01-07T11:12:02.956Z,7.56
2023-01-07T11:14:34.816Z,7.57
2023-01-07T11:17:08.721Z,7.57
2023-01-07T11:19:49.329Z,7.58
2023-01-07T11:22:43.089Z,7.57
2023-01-07T11:25:28.700Z,7.57
2023-01-07T11:28:02.331Z,7.60
2023-01-07T11:30:33.294Z,7.62
2023-01-07T11:33:07.249Z,7.64
2023-01-07T11:35:35.248Z,7.64
2023-01-07T11:38:26.089Z,7.65
2023-01-07T11:40:59.942Z,7.64
2023-01-07T11:43:39.135Z,7.62
2023-01-07T11:46:20.128Z,7.59
2023-01-07T11:48:49.241Z,7.58
2023-01-07T11:51:17.575Z,7.57
2023-01-07T11:53:47.255Z,7.57
2023-01-07T11:56:21.177Z,7.59
2023-01-07T11:59:13.338Z,7.59
2023-01-07T12:01:52.395Z,7.62
2023-01-07T12:04:35.205Z,7.67
2023-01-07T12:07:23.591Z,7.71
2023-01-07T12:09:51.838Z,7.74
2023-01-07T12:12:27.938Z,7.82
2023-01-07T12:14:56.240Z,7.91
2023-01-07T12:17:26.234Z,7.99
2023-01-07T12:20:31.453Z,8.07
2023-01-07T12:23:28.786Z,8.14
2023-01-07T12:26:08.843Z,8.16
2023-01-07T12:29:14.484Z,8.14
2023-01-07T12:32:03.827Z,8.12
2023-01-07T12:35:15.138Z,8.08
2023-01-07T12:37:53.034Z,8.05
2023-01-07T12:40:31.517Z,8.04
2023-01-07T12:43:16.440Z,8.03
2023-01-07T12:45:49.919Z,8.04
2023-01-07T12:48:36.352Z,8.03
2023-01-07T12:51:28.826Z,8.01
2023-01-07T12:54:01.924Z,7.99
2023-01-07T12:56:53.757Z,8.01
2023-01-07T12:59:46.851Z,7.99
2023-01-07T13:02:39.062Z,7.97
2023-01-07T13:05:15.910Z,7.94
2023-01-07T13:07:55.448Z,7.93
2023-01-07T13:10:48.754Z,7.95
2023-01-07T13:13:24.871Z,8.02
2023-01-07T13:15:53.380Z,8.13
2023-01-07T13:18:21.430Z,8.18
2023-01-07T13:21:07.030Z,8.20
2023-01-07T13:23:50.073Z,8.27
2023-01-07T13:26:51.098Z,8.28
2023-01-07T13:29:28.872Z,8.29
2023-01-07T13:32:06.990Z,8.31
2023-01-07T13:34:56.128Z,8.34
2023-01-07T13:37:26.937Z,8.36
2023-01-07T13:40:26.977Z,8.37
2023-01-07T13:43:16.232Z,8.39
2023-01-07T13:45:57.732Z,8.40
2023-01-07T13:48:27.824Z,8.38
2023-01-07T13:50:55.568Z,8.34
2023-01-07T13:53:25.976Z,8.27
2023-01-07T13:56:16.819Z,8.25
2023-01-07T13:58:52.608Z,8.23
2023-01-07T14:01:22.045Z,8.19
2023-01-07T14:04:05.709Z,8.16
2023-01-07T14:06:40.119Z,8.12
2023-01-07T14:09:07.673Z,8.08
2023-01-07T14:11:35.639Z,8.03
2023-01-07T14:14:12.262Z,8.00
2023-01-07T14:16:44.684Z,7.95
2023-01-07T14:19:33.809Z,7.86
2023-01-07T14:22:44.005Z,7.73
2023-01-07T14:25:39.338Z,7.56
2023-01-07T14:28:13.464Z,7.43
2023-01-07T14:30:52.849Z,7.33
2023-01-07T14:33:23.649Z,7.24
2023-01-07T14:36:00.688Z,7.16
2023-01-07T14:38:32.091Z,7.08
2023-01-07T14:41:09.806Z,6.99
2023-01-07T14:43:40.377Z,6.89
2023-01-07T14:46:24.664Z,6.80
2023-01-07T14:48:58.223Z,6.71
2023-01-07T14:51:33.421Z,6.62
2023-01-07T14:54:06.823Z,6.53
2023-01-07T14:56:44.098Z,6.43
2023-01-07T14:59:37.159Z,6.33
2023-01-07T15:02:42.177Z,6.19
2023-01-07T15:05:46.300Z,6.05
2023-01-07T15:08:19.878Z,5.87
2023-01-07T15:10:51.341Z,5.73
2023-01-07T15:13:21.480Z,5.58
2023-01-07T15:15:54.750Z,5.39
2023-01-07T15:18:23.253Z,5.22
2023-01-07T15:21:15.224Z,5.05
2023-01-07T15:24:18.828Z,4.86
2023-01-07T15:27:01.362Z,4.65
2023-01-07T15:29:38.004Z,4.50
2023-01-07T15:32:28.840Z,4.36
2023-01-07T15:34:57.542Z,4.22
2023-01-07T15:37:25.570Z,4.13
2023-01-07T15:39:57.704Z,4.06
2023-01-07T15:42:27.421Z,3.97
2023-01-07T15:44:58.110Z,3.88
2023-01-07T15:47:38.222Z,3.78
2023-01-07T15:50:22.548Z,3.67
2023-01-07T15:52:53.378Z,3.56
2023-01-07T15:55:35.235Z,3.47
2023-01-07T15:58:12.915Z,3.40
2023-01-07T16:00:41.304Z,3.35
2023-01-07T16:03:16.637Z,3.29
2023-01-07T16:05:44.851Z,3.24
2023-01-07T16:08:22.911Z,3.18
2023-01-07T16:10:57.921Z,3.13
2023-01-07T16:13:25.909Z,3.10
2023-01-07T16:15:56.485Z,3.09
2023-01-07T16:18:24.519Z,3.07
2023-01-07T16:20:56.138Z,3.03
2023-01-07T16:23:29.599Z,2.97
2023-01-07T16:26:01.282Z,2.90
2023-01-07T16:28:51.817Z,2.83
2023-01-07T16:31:22.734Z,2.76
2023-01-07T16:33:54.157Z,2.71
2023-01-07T16:36:25.975Z,2.67
2023-01-07T16:38:58.330Z,2.61
2023-01-07T16:41:28.982Z,2.57
2023-01-07T16:43:58.813Z,2.53
2023-01-07T16:46:39.495Z,2.48
2023-01-07T16:49:21.794Z,2.43
2023-01-07T16:51:52.442Z,2.42
2023-01-07T16:54:26.407Z,2.41
2023-01-07T16:57:28.826Z,2.40
2023-01-07T16:59:58.949Z,2.32
2023-01-07T17:02:48.893Z,2.24
2023-01-07T17:05:25.935Z,2.17
2023-01-07T17:08:01.656Z,2.10
2023-01-07T17:10:36.305Z,2.03
2023-01-07T17:13:27.420Z,1.99
2023-01-07T17:16:14.186Z,1.95
2023-01-07T17:18:42.695Z,1.89
2023-01-07T17:21:41.035Z,1.82
2023-01-07T17:24:40.918Z,1.73
2023-01-07T17:27:18.124Z,1.65
2023-01-07T17:29:46.305Z,1.57
2023-01-07T17:32:15.115Z,1.52
2023-01-07T17:34:43.024Z,1.48
2023-01-07T17:37:14.189Z,1.43
2023-01-07T17:39:43.278Z,1.37
2023-01-07T17:42:20.403Z,1.33
2023-01-07T17:44:48.645Z,1.29
2023-01-07T17:47:16.687Z,1.26
2023-01-07T17:49:44.664Z,1.25
2023-01-07T17:52:12.439Z,1.22
2023-01-07T17:54:44.214Z,1.19
2023-01-07T17:57:12.774Z,1.14
2023-01-07T17:59:40.898Z,1.09
2023-01-07T18:02:15.969Z,1.04
2023-01-07T18:04:44.841Z,0.97
2023-01-07T18:07:14.996Z,0.91
2023-01-07T18:09:43.027Z,0.87
2023-01-07T18:12:19.472Z,0.83
2023-01-07T18:14:47.311Z,0.78
2023-01-07T18:17:15.644Z,0.69
2023-01-07T18:19:43.504Z,0.63
2023-01-07T18:22:11.495Z,0.56
2023-01-07T18:24:39.620Z,0.51
2023-01-07T18:27:07.763Z,0.46
2023-01-07T18:29:35.729Z,0.41
2023-01-07T18:32:03.361Z,0.33
2023-01-07T18:34:31.726Z,0.25
2023-01-07T18:36:59.701Z,0.19
2023-01-07T18:39:27.826Z,0.12
2023-01-07T18:41:56.059Z,0.05
2023-01-07T18:44:24.742Z,-0.01
2023-01-07T18:46:52.378Z,-0.07
2023-01-07T18:49:20.997Z,-0.12
2023-01-07T18:51:50.168Z,-0.16
2023-01-07T18:54:27.876Z,-0.20
2023-01-07T18:56:58.606Z,-0.21
2023-01-07T18:59:26.382Z,-0.23
2023-01-07T19:01:54.583Z,-0.23
2023-01-07T19:04:22.481Z,-0.24
2023-01-07T19:06:50.440Z,-0.24
2023-01-07T19:09:18.571Z,-0.28
2023-01-07T19:11:46.899Z,-0.32
2023-01-07T19:14:15.114Z,-0.35
2023-01-07T19:16:43.108Z,-0.36
2023-01-07T19:19:11.141Z,-0.35
2023-01-07T19:21:39.068Z,-0.33
2023-01-07T19:24:07.400Z,-0.31
2023-01-07T19:26:35.333Z,-0.31
2023-01-07T19:29:03.349Z,-0.31
2023-01-07T19:31:31.463Z,-0.33
2023-01-07T19:33:59.439Z,-0.37
2023-01-07T19:36:27.428Z,-0.40
2023-01-07T19:38:55.407Z,-0.43
2023-01-07T19:41:23.599Z,-0.46
2023-01-07T19:43:51.433Z,-0.48
2023-01-07T19:46:20.308Z,-0.47
2023-01-07T19:48:48.325Z,-0.47
2023-01-07T19:51:16.137Z,-0.49
2023-01-07T19:53:43.901Z,-0.53
2023-01-07T19:56:13.149Z,-0.56
2023-01-07T19:58:41.212Z,-0.62
2023-01-07T20:01:12.641Z,-0.66
2023-01-07T20:03:40.713Z,-0.69
2023-01-07T20:06:11.873Z,-0.69
2023-01-07T20:08:40.237Z,-0.70
2023-01-07T20:11:08.277Z,-0.70
2023-01-07T20:13:38.521Z,-0.71
2023-01-07T20:16:25.375Z,-0.72
2023-01-07T20:18:55.284Z,-0.76
2023-01-07T20:21:25.092Z,-0.77
2023-01-07T20:23:53.434Z,-0.79
2023-01-07T20:26:23.995Z,-0.80
2023-01-07T20:28:52.118Z,-0.82
2023-01-07T20:31:21.775Z,-0.82
2023-01-07T20:33:50.189Z,-0.81
2023-01-07T20:36:20.990Z,-0.81
2023-01-07T20:38:48.737Z,-0.83
2023-01-07T20:41:20.476Z,-0.85
2023-01-07T20:43:52.643Z,-0.85
2023-01-07T20:46:20.979Z,-0.86
2023-01-07T20:48:49.587Z,-0.87
2023-01-07T20:51:17.493Z,-0.90
2023-01-07T20:53:46.108Z,-0.95
2023-01-07T20:56:16.767Z,-1.00
2023-01-07T20:58:44.796Z,-1.05
2023-01-07T21:01:14.824Z,-1.10
2023-01-07T21:03:43.113Z,-1.13
2023-01-07T21:06:13.803Z,-1.15
2023-01-07T21:08:41.446Z,-1.15
2023-01-07T21:11:21.232Z,-1.17
2023-01-07T21:13:50.886Z,-1.18
2023-01-07T21:16:19.119Z,-1.19
2023-01-07T21:18:47.004Z,-1.20
2023-01-07T21:21:17.841Z,-1.21
2023-01-07T21:23:46.086Z,-1.23
2023-01-07T21:26:14.891Z,-1.24
2023-01-07T21:28:44.394Z,-1.24
2023-01-07T21:31:15.825Z,-1.25
2023-01-07T21:33:44.915Z,-1.26
2023-01-07T21:36:18.259Z,-1.28
2023-01-07T21:38:48.028Z,-1.29
2023-01-07T21:41:17.303Z,-1.29
2023-01-07T21:43:45.307Z,-1.24
2023-01-07T21:46:13.738Z,-1.19
2023-01-07T21:48:46.470Z,-1.14
2023-01-07T21:51:20.621Z,-1.10
2023-01-07T21:53:48.650Z,-1.07
2023-01-07T21:56:18.098Z,-1.00
2023-01-07T21:58:46.296Z,-0.91
2023-01-07T22:01:15.833Z,-0.79
2023-01-07T22:03:46.599Z,-0.68
2023-01-07T22:06:26.663Z,-0.60
2023-01-07T22:08:56.714Z,-0.54
2023-01-07T22:11:25.235Z,-0.48
2023-01-07T22:13:54.341Z,-0.43
2023-01-07T22:16:24.978Z,-0.39
2023-01-07T22:18:52.905Z,-0.33
2023-01-07T22:21:21.247Z,-0.28
2023-01-07T22:23:49.287Z,-0.19
2023-01-07T22:26:19.226Z,-0.12
2023-01-07T22:28:57.214Z,-0.05
2023-01-07T22:31:28.099Z,0.02
2023-01-07T22:33:56.043Z,0.10
2023-01-07T22:36:32.630Z,0.18
2023-01-07T22:39:06.498Z,0.26
2023-01-07T22:41:34.879Z,0.31
2023-01-07T22:44:06.265Z,0.32
2023-01-07T22:46:36.765Z,0.33
2023-01-07T22:49:04.424Z,0.36
2023-01-07T22:51:38.888Z,0.35
2023-01-07T22:54:07.597Z,0.34
2023-01-07T22:56:35.407Z,0.38
2023-01-07T22:59:03.252Z,0.43
2023-01-07T23:01:31.395Z,0.51
2023-01-07T23:03:59.085Z,0.60
2023-01-07T23:06:26.753Z,0.65
2023-01-07T23:08:54.405Z,0.70
2023-01-07T23:11:22.356Z,0.80
2023-01-07T23:13:49.906Z,0.92
2023-01-07T23:16:17.864Z,1.01
2023-01-07T23:18:45.469Z,1.11
2023-01-07T23:21:13.687Z,1.27
2023-01-07T23:23:41.659Z,1.42
2023-01-07T23:26:13.556Z,1.55
2023-01-07T23:28:41.830Z,1.65
2023-01-07T23:31:09.650Z,1.73
2023-01-07T23:33:37.437Z,1.83
2023-01-07T23:36:07.697Z,1.82
2023-01-07T23:38:36.442Z,1.79
2023-01-07T23:41:06.464Z,1.81
2023-01-07T23:43:35.410Z,1.82
2023-01-07T23:46:05.388Z,1.92
2023-01-07T23:48:35.677Z,2.05
2023-01-07T23:51:12.169Z,2.20
2023-01-07T23:53:40.186Z,2.36
2023-01-07T23:56:08.669Z,2.50
2023-01-07T23:58:37.153Z,2.62
